sensor_id;sensor_type;location;lat;lon;timestamp;P1;durP1;ratioP1;P2;durP2;ratioP2
28862;SDS011;15994;51.796;13.006;2023-01-29T00:00:09;10.18;;;6.32;;
28862;SDS011;15994;51.796;13.006;2023-01-29T00:02:36;9.32;;;6.03;;
28862;SDS011;15994;51.796;13.006;2023-01-29T00:05:03;8.88;;;5.80;;
28862;SDS011;15994;51.796;13.006;2023-01-29T00:07:31;8.70;;;5.80;;
28862;SDS011;15994;51.796;13.006;2023-01-29T00:09:57;9.18;;;5.78;;
28862;SDS011;15994;51.796;13.006;2023-01-29T00:12:24;8.80;;;5.63;;
28862;SDS011;15994;51.796;13.006;2023-01-29T00:14:50;8.43;;;5.70;;
28862;SDS011;15994;51.796;13.006;2023-01-29T00:17:17;6.78;;;5.47;;
28862;SDS011;15994;51.796;13.006;2023-01-29T00:19:43;8.23;;;5.90;;
28862;SDS011;15994;51.796;13.006;2023-01-29T00:22:10;8.48;;;5.35;;
28862;SDS011;15994;51.796;13.006;2023-01-29T00:24:36;9.15;;;5.97;;
28862;SDS011;15994;51.796;13.006;2023-01-29T00:27:03;6.95;;;4.95;;
28862;SDS011;15994;51.796;13.006;2023-01-29T00:29:30;7.53;;;5.15;;
28862;SDS011;15994;51.796;13.006;2023-01-29T00:31:56;8.07;;;5.00;;
28862;SDS011;15994;51.796;13.006;2023-01-29T00:34:23;7.15;;;5.13;;
28862;SDS011;15994;51.796;13.006;2023-01-29T00:36:49;8.98;;;5.22;;
28862;SDS011;15994;51.796;13.006;2023-01-29T00:39:16;7.70;;;4.45;;
28862;SDS011;15994;51.796;13.006;2023-01-29T00:41:48;7.22;;;4.65;;
28862;SDS011;15994;51.796;13.006;2023-01-29T00:44:32;7.20;;;4.05;;
28862;SDS011;15994;51.796;13.006;2023-01-29T00:47:27;5.73;;;4.00;;
28862;SDS011;15994;51.796;13.006;2023-01-29T00:49:58;7.80;;;4.25;;
28862;SDS011;15994;51.796;13.006;2023-01-29T00:52:30;6.65;;;3.83;;
28862;SDS011;15994;51.796;13.006;2023-01-29T00:54:57;6.22;;;4.47;;
28862;SDS011;15994;51.796;13.006;2023-01-29T00:57:25;7.35;;;4.40;;
28862;SDS011;15994;51.796;13.006;2023-01-29T00:59:53;7.07;;;3.70;;
28862;SDS011;15994;51.796;13.006;2023-01-29T01:02:20;9.05;;;3.92;;
28862;SDS011;15994;51.796;13.006;2023-01-29T01:05:05;7.93;;;4.00;;
28862;SDS011;15994;51.796;13.006;2023-01-29T01:07:34;5.82;;;4.30;;
28862;SDS011;15994;51.796;13.006;2023-01-29T01:10:00;7.20;;;4.05;;
28862;SDS011;15994;51.796;13.006;2023-01-29T01:12:44;8.20;;;5.10;;
28862;SDS011;15994;51.796;13.006;2023-01-29T01:15:12;6.90;;;4.57;;
28862;SDS011;15994;51.796;13.006;2023-01-29T01:17:38;7.60;;;4.30;;
28862;SDS011;15994;51.796;13.006;2023-01-29T01:20:05;6.47;;;4.50;;
28862;SDS011;15994;51.796;13.006;2023-01-29T01:22:32;5.90;;;4.43;;
28862;SDS011;15994;51.796;13.006;2023-01-29T01:24:59;8.25;;;4.53;;
28862;SDS011;15994;51.796;13.006;2023-01-29T01:27:26;7.70;;;4.38;;
28862;SDS011;15994;51.796;13.006;2023-01-29T01:29:53;6.95;;;4.78;;
28862;SDS011;15994;51.796;13.006;2023-01-29T01:32:19;6.32;;;4.53;;
28862;SDS011;15994;51.796;13.006;2023-01-29T01:34:46;6.70;;;4.75;;
28862;SDS011;15994;51.796;13.006;2023-01-29T01:37:12;10.18;;;4.72;;
28862;SDS011;15994;51.796;13.006;2023-01-29T01:39:39;6.72;;;4.28;;
28862;SDS011;15994;51.796;13.006;2023-01-29T01:42:11;6.78;;;4.57;;
28862;SDS011;15994;51.796;13.006;2023-01-29T01:44:54;7.47;;;4.63;;
28862;SDS011;15994;51.796;13.006;2023-01-29T01:49:59;8.98;;;4.90;;
28862;SDS011;15994;51.796;13.006;2023-01-29T01:52:31;8.32;;;4.72;;
28862;SDS011;15994;51.796;13.006;2023-01-29T01:54:59;7.05;;;4.07;;
28862;SDS011;15994;51.796;13.006;2023-01-29T01:57:26;7.82;;;4.70;;
28862;SDS011;15994;51.796;13.006;2023-01-29T01:59:57;9.52;;;4.75;;
28862;SDS011;15994;51.796;13.006;2023-01-29T02:02:34;7.65;;;4.75;;
28862;SDS011;15994;51.796;13.006;2023-01-29T02:08:04;7.35;;;4.60;;
28862;SDS011;15994;51.796;13.006;2023-01-29T02:10:48;8.10;;;4.60;;
28862;SDS011;15994;51.796;13.006;2023-01-29T02:13:15;9.25;;;5.30;;
28862;SDS011;15994;51.796;13.006;2023-01-29T02:15:43;10.18;;;5.25;;
28862;SDS011;15994;51.796;13.006;2023-01-29T02:18:14;8.45;;;4.97;;
28862;SDS011;15994;51.796;13.006;2023-01-29T02:20:43;9.65;;;5.45;;
28862;SDS011;15994;51.796;13.006;2023-01-29T02:24:33;8.30;;;5.07;;
28862;SDS011;15994;51.796;13.006;2023-01-29T02:29:43;10.57;;;5.30;;
28862;SDS011;15994;51.796;13.006;2023-01-29T02:32:31;7.03;;;5.40;;
28862;SDS011;15994;51.796;13.006;2023-01-29T02:40:34;8.88;;;5.30;;
28862;SDS011;15994;51.796;13.006;2023-01-29T02:43:21;7.55;;;5.18;;
28862;SDS011;15994;51.796;13.006;2023-01-29T02:46:43;9.93;;;5.25;;
28862;SDS011;15994;51.796;13.006;2023-01-29T02:48:59;8.60;;;5.40;;
28862;SDS011;15994;51.796;13.006;2023-01-29T02:51:38;10.23;;;5.53;;
28862;SDS011;15994;51.796;13.006;2023-01-29T02:54:20;8.18;;;5.65;;
28862;SDS011;15994;51.796;13.006;2023-01-29T02:56:57;9.05;;;5.38;;
28862;SDS011;15994;51.796;13.006;2023-01-29T02:59:39;10.63;;;5.80;;
28862;SDS011;15994;51.796;13.006;2023-01-29T03:02:15;9.07;;;6.07;;
28862;SDS011;15994;51.796;13.006;2023-01-29T03:04:47;9.45;;;6.05;;
28862;SDS011;15994;51.796;13.006;2023-01-29T03:07:21;8.82;;;6.15;;
28862;SDS011;15994;51.796;13.006;2023-01-29T03:12:55;11.70;;;6.97;;
28862;SDS011;15994;51.796;13.006;2023-01-29T03:15:31;9.23;;;6.47;;
28862;SDS011;15994;51.796;13.006;2023-01-29T03:18:07;13.00;;;7.10;;
28862;SDS011;15994;51.796;13.006;2023-01-29T03:20:42;10.88;;;6.75;;
28862;SDS011;15994;51.796;13.006;2023-01-29T03:23:14;10.27;;;6.43;;
28862;SDS011;15994;51.796;13.006;2023-01-29T03:26:12;10.00;;;6.07;;
28862;SDS011;15994;51.796;13.006;2023-01-29T03:28:59;10.55;;;6.97;;
28862;SDS011;15994;51.796;13.006;2023-01-29T03:31:45;13.52;;;7.07;;
28862;SDS011;15994;51.796;13.006;2023-01-29T03:37:10;10.88;;;7.00;;
28862;SDS011;15994;51.796;13.006;2023-01-29T03:39:48;11.88;;;7.28;;
28862;SDS011;15994;51.796;13.006;2023-01-29T03:42:37;13.30;;;7.82;;
28862;SDS011;15994;51.796;13.006;2023-01-29T03:48:33;11.60;;;7.35;;
28862;SDS011;15994;51.796;13.006;2023-01-29T03:51:30;12.35;;;7.35;;
28862;SDS011;15994;51.796;13.006;2023-01-29T03:54:27;12.80;;;7.63;;
28862;SDS011;15994;51.796;13.006;2023-01-29T03:57:11;13.85;;;7.68;;
28862;SDS011;15994;51.796;13.006;2023-01-29T04:02:12;11.48;;;7.78;;
28862;SDS011;15994;51.796;13.006;2023-01-29T04:04:52;12.98;;;8.23;;
28862;SDS011;15994;51.796;13.006;2023-01-29T04:07:23;12.43;;;8.13;;
28862;SDS011;15994;51.796;13.006;2023-01-29T04:09:56;12.07;;;8.30;;
28862;SDS011;15994;51.796;13.006;2023-01-29T04:12:29;12.65;;;8.32;;
28862;SDS011;15994;51.796;13.006;2023-01-29T04:15:02;12.45;;;7.97;;
28862;SDS011;15994;51.796;13.006;2023-01-29T04:17:36;12.98;;;8.90;;
28862;SDS011;15994;51.796;13.006;2023-01-29T04:20:05;12.90;;;8.45;;
28862;SDS011;15994;51.796;13.006;2023-01-29T04:22:33;12.05;;;8.68;;
28862;SDS011;15994;51.796;13.006;2023-01-29T04:25:01;15.05;;;9.60;;
28862;SDS011;15994;51.796;13.006;2023-01-29T04:33:27;14.48;;;8.85;;
28862;SDS011;15994;51.796;13.006;2023-01-29T04:36:16;12.93;;;9.05;;
28862;SDS011;15994;51.796;13.006;2023-01-29T04:39:07;14.32;;;9.05;;
28862;SDS011;15994;51.796;13.006;2023-01-29T04:41:54;13.38;;;9.30;;
28862;SDS011;15994;51.796;13.006;2023-01-29T04:44:32;13.23;;;8.77;;
28862;SDS011;15994;51.796;13.006;2023-01-29T04:47:23;15.77;;;9.60;;
28862;SDS011;15994;51.796;13.006;2023-01-29T04:55:49;16.65;;;9.98;;
28862;SDS011;15994;51.796;13.006;2023-01-29T04:58:37;14.35;;;10.30;;
28862;SDS011;15994;51.796;13.006;2023-01-29T05:01:10;15.52;;;9.85;;
28862;SDS011;15994;51.796;13.006;2023-01-29T05:03:40;14.57;;;9.63;;
28862;SDS011;15994;51.796;13.006;2023-01-29T05:06:10;16.98;;;9.98;;
28862;SDS011;15994;51.796;13.006;2023-01-29T05:08:38;15.85;;;10.35;;
28862;SDS011;15994;51.796;13.006;2023-01-29T05:11:06;16.70;;;9.43;;
28862;SDS011;15994;51.796;13.006;2023-01-29T05:13:33;14.75;;;10.07;;
28862;SDS011;15994;51.796;13.006;2023-01-29T05:16:08;14.05;;;9.85;;
28862;SDS011;15994;51.796;13.006;2023-01-29T05:18:44;16.50;;;11.27;;
28862;SDS011;15994;51.796;13.006;2023-01-29T05:21:11;15.55;;;10.95;;
28862;SDS011;15994;51.796;13.006;2023-01-29T05:23:38;15.57;;;10.10;;
28862;SDS011;15994;51.796;13.006;2023-01-29T05:26:23;16.10;;;10.50;;
28862;SDS011;15994;51.796;13.006;2023-01-29T05:29:07;15.45;;;10.50;;
28862;SDS011;15994;51.796;13.006;2023-01-29T05:31:33;17.20;;;10.88;;
28862;SDS011;15994;51.796;13.006;2023-01-29T05:34:00;15.30;;;10.73;;
28862;SDS011;15994;51.796;13.006;2023-01-29T05:36:26;15.93;;;10.32;;
28862;SDS011;15994;51.796;13.006;2023-01-29T05:38:53;16.77;;;11.70;;
28862;SDS011;15994;51.796;13.006;2023-01-29T05:41:19;19.17;;;11.25;;
28862;SDS011;15994;51.796;13.006;2023-01-29T05:43:46;15.13;;;11.02;;
28862;SDS011;15994;51.796;13.006;2023-01-29T05:46:12;17.33;;;11.45;;
28862;SDS011;15994;51.796;13.006;2023-01-29T05:48:39;19.08;;;11.85;;
28862;SDS011;15994;51.796;13.006;2023-01-29T05:51:05;18.58;;;12.05;;
28862;SDS011;15994;51.796;13.006;2023-01-29T05:53:32;15.57;;;11.32;;
28862;SDS011;15994;51.796;13.006;2023-01-29T05:56:02;20.95;;;12.45;;
28862;SDS011;15994;51.796;13.006;2023-01-29T05:58:30;20.05;;;12.32;;
28862;SDS011;15994;51.796;13.006;2023-01-29T06:00:57;18.95;;;12.57;;
28862;SDS011;15994;51.796;13.006;2023-01-29T06:03:32;16.17;;;9.50;;
28862;SDS011;15994;51.796;13.006;2023-01-29T06:06:00;18.25;;;11.73;;
28862;SDS011;15994;51.796;13.006;2023-01-29T06:08:27;18.80;;;12.23;;
28862;SDS011;15994;51.796;13.006;2023-01-29T06:10:53;17.80;;;11.98;;
28862;SDS011;15994;51.796;13.006;2023-01-29T06:13:20;21.63;;;12.40;;
28862;SDS011;15994;51.796;13.006;2023-01-29T06:15:46;19.85;;;13.20;;
28862;SDS011;15994;51.796;13.006;2023-01-29T06:18:13;20.92;;;13.43;;
28862;SDS011;15994;51.796;13.006;2023-01-29T06:20:39;19.15;;;12.70;;
28862;SDS011;15994;51.796;13.006;2023-01-29T06:23:06;21.00;;;13.13;;
28862;SDS011;15994;51.796;13.006;2023-01-29T06:25:32;18.15;;;13.32;;
28862;SDS011;15994;51.796;13.006;2023-01-29T06:27:59;19.70;;;13.40;;
28862;SDS011;15994;51.796;13.006;2023-01-29T06:30:25;23.30;;;14.25;;
28862;SDS011;15994;51.796;13.006;2023-01-29T06:32:56;20.58;;;13.45;;
28862;SDS011;15994;51.796;13.006;2023-01-29T06:35:25;25.27;;;15.25;;
28862;SDS011;15994;51.796;13.006;2023-01-29T06:37:52;21.33;;;13.95;;
28862;SDS011;15994;51.796;13.006;2023-01-29T06:40:19;21.88;;;14.13;;
28862;SDS011;15994;51.796;13.006;2023-01-29T06:42:45;22.27;;;14.90;;
28862;SDS011;15994;51.796;13.006;2023-01-29T06:45:12;26.02;;;15.85;;
28862;SDS011;15994;51.796;13.006;2023-01-29T06:47:38;24.17;;;14.75;;
28862;SDS011;15994;51.796;13.006;2023-01-29T06:50:05;22.95;;;15.80;;
28862;SDS011;15994;51.796;13.006;2023-01-29T06:52:32;26.10;;;16.38;;
28862;SDS011;15994;51.796;13.006;2023-01-29T06:54:58;24.30;;;15.68;;
28862;SDS011;15994;51.796;13.006;2023-01-29T06:57:27;25.23;;;15.82;;
28862;SDS011;15994;51.796;13.006;2023-01-29T06:59:54;27.50;;;15.60;;
28862;SDS011;15994;51.796;13.006;2023-01-29T07:02:20;26.80;;;16.13;;
28862;SDS011;15994;51.796;13.006;2023-01-29T07:04:47;24.67;;;16.48;;
28862;SDS011;15994;51.796;13.006;2023-01-29T07:07:13;23.08;;;15.98;;
28862;SDS011;15994;51.796;13.006;2023-01-29T07:09:40;24.33;;;16.40;;
28862;SDS011;15994;51.796;13.006;2023-01-29T07:12:08;29.77;;;16.67;;
28862;SDS011;15994;51.796;13.006;2023-01-29T07:14:35;27.20;;;15.80;;
28862;SDS011;15994;51.796;13.006;2023-01-29T07:17:02;25.45;;;15.50;;
28862;SDS011;15994;51.796;13.006;2023-01-29T07:19:29;25.85;;;16.02;;
28862;SDS011;15994;51.796;13.006;2023-01-29T07:21:55;22.60;;;15.15;;
28862;SDS011;15994;51.796;13.006;2023-01-29T07:24:22;27.00;;;16.50;;
28862;SDS011;15994;51.796;13.006;2023-01-29T07:26:48;26.58;;;17.08;;
28862;SDS011;15994;51.796;13.006;2023-01-29T07:29:15;26.52;;;15.95;;
28862;SDS011;15994;51.796;13.006;2023-01-29T07:31:41;25.33;;;16.58;;
28862;SDS011;15994;51.796;13.006;2023-01-29T07:34:08;23.40;;;15.23;;
28862;SDS011;15994;51.796;13.006;2023-01-29T07:36:34;26.20;;;16.92;;
28862;SDS011;15994;51.796;13.006;2023-01-29T07:39:01;25.85;;;15.48;;
28862;SDS011;15994;51.796;13.006;2023-01-29T07:41:28;24.30;;;15.57;;
28862;SDS011;15994;51.796;13.006;2023-01-29T07:43:54;25.10;;;15.75;;
28862;SDS011;15994;51.796;13.006;2023-01-29T07:46:20;21.60;;;15.07;;
28862;SDS011;15994;51.796;13.006;2023-01-29T07:48:47;26.40;;;15.57;;
28862;SDS011;15994;51.796;13.006;2023-01-29T07:51:13;22.95;;;15.80;;
28862;SDS011;15994;51.796;13.006;2023-01-29T07:53:42;22.80;;;15.00;;
28862;SDS011;15994;51.796;13.006;2023-01-29T07:56:09;26.42;;;16.60;;
28862;SDS011;15994;51.796;13.006;2023-01-29T07:58:35;25.05;;;15.40;;
28862;SDS011;15994;51.796;13.006;2023-01-29T08:01:05;23.90;;;15.73;;
28862;SDS011;15994;51.796;13.006;2023-01-29T08:03:32;21.58;;;15.05;;
28862;SDS011;15994;51.796;13.006;2023-01-29T08:05:58;23.30;;;15.13;;
28862;SDS011;15994;51.796;13.006;2023-01-29T08:08:25;25.75;;;16.17;;
28862;SDS011;15994;51.796;13.006;2023-01-29T08:10:51;24.40;;;16.52;;
28862;SDS011;15994;51.796;13.006;2023-01-29T08:13:18;23.95;;;15.85;;
28862;SDS011;15994;51.796;13.006;2023-01-29T08:15:44;56.42;;;35.90;;
28862;SDS011;15994;51.796;13.006;2023-01-29T08:18:12;27.80;;;18.27;;
28862;SDS011;15994;51.796;13.006;2023-01-29T08:20:39;22.60;;;15.80;;
28862;SDS011;15994;51.796;13.006;2023-01-29T08:23:06;23.95;;;14.80;;
28862;SDS011;15994;51.796;13.006;2023-01-29T08:25:39;21.80;;;15.00;;
28862;SDS011;15994;51.796;13.006;2023-01-29T08:28:06;23.80;;;15.93;;
28862;SDS011;15994;51.796;13.006;2023-01-29T08:30:33;22.27;;;14.90;;
28862;SDS011;15994;51.796;13.006;2023-01-29T08:33:01;24.52;;;15.38;;
28862;SDS011;15994;51.796;13.006;2023-01-29T08:35:28;20.55;;;14.20;;
28862;SDS011;15994;51.796;13.006;2023-01-29T08:37:56;22.05;;;15.50;;
28862;SDS011;15994;51.796;13.006;2023-01-29T08:40:24;21.55;;;15.18;;
28862;SDS011;15994;51.796;13.006;2023-01-29T08:42:56;22.17;;;15.10;;
28862;SDS011;15994;51.796;13.006;2023-01-29T08:45:27;24.53;;;17.27;;
28862;SDS011;15994;51.796;13.006;2023-01-29T08:47:54;24.95;;;15.80;;
28862;SDS011;15994;51.796;13.006;2023-01-29T08:50:20;24.88;;;16.65;;
28862;SDS011;15994;51.796;13.006;2023-01-29T08:52:46;23.40;;;15.43;;
28862;SDS011;15994;51.796;13.006;2023-01-29T08:55:13;21.83;;;15.35;;
28862;SDS011;15994;51.796;13.006;2023-01-29T08:57:40;24.25;;;16.02;;
28862;SDS011;15994;51.796;13.006;2023-01-29T09:00:06;24.45;;;15.88;;
28862;SDS011;15994;51.796;13.006;2023-01-29T09:02:35;23.17;;;14.65;;
28862;SDS011;15994;51.796;13.006;2023-01-29T09:05:02;25.20;;;16.23;;
28862;SDS011;15994;51.796;13.006;2023-01-29T09:07:29;25.75;;;16.15;;
28862;SDS011;15994;51.796;13.006;2023-01-29T09:09:55;23.10;;;15.95;;
28862;SDS011;15994;51.796;13.006;2023-01-29T09:12:22;23.52;;;16.42;;
28862;SDS011;15994;51.796;13.006;2023-01-29T09:14:49;27.58;;;16.33;;
28862;SDS011;15994;51.796;13.006;2023-01-29T09:17:15;24.88;;;15.82;;
28862;SDS011;15994;51.796;13.006;2023-01-29T09:19:42;23.67;;;15.55;;
28862;SDS011;15994;51.796;13.006;2023-01-29T09:22:08;28.13;;;17.35;;
28862;SDS011;15994;51.796;13.006;2023-01-29T09:24:35;26.15;;;18.13;;
28862;SDS011;15994;51.796;13.006;2023-01-29T09:27:02;26.30;;;17.27;;
28862;SDS011;15994;51.796;13.006;2023-01-29T09:29:29;28.60;;;19.05;;
28862;SDS011;15994;51.796;13.006;2023-01-29T09:31:55;25.92;;;17.70;;
28862;SDS011;15994;51.796;13.006;2023-01-29T09:34:21;26.35;;;17.77;;
28862;SDS011;15994;51.796;13.006;2023-01-29T09:36:48;29.75;;;19.75;;
28862;SDS011;15994;51.796;13.006;2023-01-29T09:39:16;29.65;;;17.55;;
28862;SDS011;15994;51.796;13.006;2023-01-29T09:44:32;24.10;;;16.75;;
28862;SDS011;15994;51.796;13.006;2023-01-29T09:47:19;26.47;;;16.20;;
28862;SDS011;15994;51.796;13.006;2023-01-29T09:49:51;27.02;;;17.20;;
28862;SDS011;15994;51.796;13.006;2023-01-29T09:52:23;28.38;;;18.30;;
28862;SDS011;15994;51.796;13.006;2023-01-29T09:54:55;26.83;;;17.05;;
28862;SDS011;15994;51.796;13.006;2023-01-29T09:58:15;24.48;;;16.20;;
28862;SDS011;15994;51.796;13.006;2023-01-29T10:00:31;25.52;;;15.85;;
28862;SDS011;15994;51.796;13.006;2023-01-29T10:06:01;22.77;;;16.48;;
28862;SDS011;15994;51.796;13.006;2023-01-29T10:08:40;24.17;;;15.85;;
28862;SDS011;15994;51.796;13.006;2023-01-29T10:11:19;24.52;;;16.80;;
28862;SDS011;15994;51.796;13.006;2023-01-29T10:14:02;22.23;;;15.85;;
28862;SDS011;15994;51.796;13.006;2023-01-29T10:16:42;25.83;;;17.20;;
28862;SDS011;15994;51.796;13.006;2023-01-29T10:24:59;24.35;;;15.50;;
28862;SDS011;15994;51.796;13.006;2023-01-29T10:27:34;25.10;;;16.13;;
28862;SDS011;15994;51.796;13.006;2023-01-29T10:30:26;25.00;;;16.60;;
28862;SDS011;15994;51.796;13.006;2023-01-29T10:33:02;26.98;;;16.30;;
28862;SDS011;15994;51.796;13.006;2023-01-29T10:35:32;23.38;;;15.88;;
28862;SDS011;15994;51.796;13.006;2023-01-29T10:38:23;22.83;;;14.85;;
28862;SDS011;15994;51.796;13.006;2023-01-29T10:41:03;24.88;;;15.82;;
28862;SDS011;15994;51.796;13.006;2023-01-29T10:43:57;23.50;;;16.55;;
28862;SDS011;15994;51.796;13.006;2023-01-29T10:46:48;23.15;;;15.73;;
28862;SDS011;15994;51.796;13.006;2023-01-29T10:49:33;21.63;;;15.18;;
28862;SDS011;15994;51.796;13.006;2023-01-29T10:52:13;24.05;;;14.75;;
28862;SDS011;15994;51.796;13.006;2023-01-29T10:57:50;21.95;;;15.18;;
28862;SDS011;15994;51.796;13.006;2023-01-29T11:00:21;22.45;;;15.60;;
28862;SDS011;15994;51.796;13.006;2023-01-29T11:02:50;24.70;;;16.17;;
28862;SDS011;15994;51.796;13.006;2023-01-29T11:05:28;23.75;;;16.85;;
28862;SDS011;15994;51.796;13.006;2023-01-29T11:08:00;21.70;;;15.35;;
28862;SDS011;15994;51.796;13.006;2023-01-29T11:13:25;25.77;;;16.35;;
28862;SDS011;15994;51.796;13.006;2023-01-29T11:15:57;23.42;;;14.75;;
28862;SDS011;15994;51.796;13.006;2023-01-29T11:18:23;25.70;;;16.15;;
28862;SDS011;15994;51.796;13.006;2023-01-29T11:20:58;22.65;;;16.10;;
28862;SDS011;15994;51.796;13.006;2023-01-29T11:23:28;22.52;;;15.23;;
28862;SDS011;15994;51.796;13.006;2023-01-29T11:25:57;22.05;;;15.18;;
28862;SDS011;15994;51.796;13.006;2023-01-29T11:28:37;22.25;;;15.32;;
28862;SDS011;15994;51.796;13.006;2023-01-29T11:33:45;23.55;;;15.13;;
28862;SDS011;15994;51.796;13.006;2023-01-29T11:36:19;21.58;;;14.38;;
28862;SDS011;15994;51.796;13.006;2023-01-29T11:39:16;21.17;;;14.65;;
28862;SDS011;15994;51.796;13.006;2023-01-29T11:41:45;24.23;;;14.52;;
28862;SDS011;15994;51.796;13.006;2023-01-29T11:44:25;21.33;;;14.70;;
28862;SDS011;15994;51.796;13.006;2023-01-29T11:47:24;19.98;;;13.90;;
28862;SDS011;15994;51.796;13.006;2023-01-29T11:49:53;19.65;;;13.93;;
28862;SDS011;15994;51.796;13.006;2023-01-29T11:52:34;21.52;;;14.43;;
28862;SDS011;15994;51.796;13.006;2023-01-29T11:55:04;21.65;;;15.30;;
28862;SDS011;15994;51.796;13.006;2023-01-29T11:57:40;22.55;;;15.00;;
28862;SDS011;15994;51.796;13.006;2023-01-29T12:03:06;25.40;;;14.98;;
28862;SDS011;15994;51.796;13.006;2023-01-29T12:05:52;20.58;;;14.90;;
28862;SDS011;15994;51.796;13.006;2023-01-29T12:08:33;21.58;;;14.52;;
28862;SDS011;15994;51.796;13.006;2023-01-29T12:11:06;24.48;;;15.52;;
28862;SDS011;15994;51.796;13.006;2023-01-29T12:13:36;21.58;;;14.38;;
28862;SDS011;15994;51.796;13.006;2023-01-29T12:19:13;20.60;;;14.05;;
28862;SDS011;15994;51.796;13.006;2023-01-29T12:21:48;22.73;;;14.82;;
28862;SDS011;15994;51.796;13.006;2023-01-29T12:27:16;22.13;;;14.77;;
28862;SDS011;15994;51.796;13.006;2023-01-29T12:32:42;23.00;;;14.77;;
28862;SDS011;15994;51.796;13.006;2023-01-29T12:35:17;21.67;;;14.15;;
28862;SDS011;15994;51.796;13.006;2023-01-29T12:37:53;21.52;;;14.48;;
28862;SDS011;15994;51.796;13.006;2023-01-29T12:40:28;23.70;;;15.23;;
28862;SDS011;15994;51.796;13.006;2023-01-29T12:43:10;22.60;;;14.50;;
28862;SDS011;15994;51.796;13.006;2023-01-29T12:45:40;22.30;;;15.13;;
28862;SDS011;15994;51.796;13.006;2023-01-29T12:48:12;21.25;;;14.13;;
28862;SDS011;15994;51.796;13.006;2023-01-29T12:50:44;24.15;;;15.43;;
28862;SDS011;15994;51.796;13.006;2023-01-29T12:53:25;25.75;;;17.15;;
28862;SDS011;15994;51.796;13.006;2023-01-29T12:56:41;25.63;;;15.98;;
28862;SDS011;15994;51.796;13.006;2023-01-29T12:58:56;22.38;;;14.98;;
28862;SDS011;15994;51.796;13.006;2023-01-29T13:01:29;23.60;;;15.93;;
28862;SDS011;15994;51.796;13.006;2023-01-29T13:04:04;23.60;;;16.08;;
28862;SDS011;15994;51.796;13.006;2023-01-29T13:06:47;26.30;;;15.95;;
28862;SDS011;15994;51.796;13.006;2023-01-29T13:09:20;24.27;;;15.32;;
28862;SDS011;15994;51.796;13.006;2023-01-29T13:11:52;22.75;;;14.93;;
28862;SDS011;15994;51.796;13.006;2023-01-29T13:17:27;22.75;;;14.93;;
28862;SDS011;15994;51.796;13.006;2023-01-29T13:20:02;24.05;;;15.05;;
28862;SDS011;15994;51.796;13.006;2023-01-29T13:22:35;22.97;;;14.80;;
28862;SDS011;15994;51.796;13.006;2023-01-29T13:25:05;21.95;;;13.98;;
28862;SDS011;15994;51.796;13.006;2023-01-29T13:27:37;22.85;;;14.48;;
28862;SDS011;15994;51.796;13.006;2023-01-29T13:30:04;23.33;;;14.60;;
28862;SDS011;15994;51.796;13.006;2023-01-29T13:32:31;22.42;;;14.52;;
28862;SDS011;15994;51.796;13.006;2023-01-29T13:35:04;22.13;;;14.70;;
28862;SDS011;15994;51.796;13.006;2023-01-29T13:37:40;22.70;;;14.43;;
28862;SDS011;15994;51.796;13.006;2023-01-29T13:40:18;25.02;;;14.48;;
28862;SDS011;15994;51.796;13.006;2023-01-29T13:42:49;23.52;;;14.90;;
28862;SDS011;15994;51.796;13.006;2023-01-29T13:45:24;23.95;;;15.00;;
28862;SDS011;15994;51.796;13.006;2023-01-29T13:48:07;23.40;;;14.88;;
28862;SDS011;15994;51.796;13.006;2023-01-29T13:50:36;22.27;;;14.35;;
28862;SDS011;15994;51.796;13.006;2023-01-29T13:53:06;24.40;;;15.25;;
28862;SDS011;15994;51.796;13.006;2023-01-29T13:55:42;24.10;;;15.20;;
28862;SDS011;15994;51.796;13.006;2023-01-29T13:58:52;23.33;;;14.88;;
28862;SDS011;15994;51.796;13.006;2023-01-29T14:00:58;23.38;;;15.00;;
28862;SDS011;15994;51.796;13.006;2023-01-29T14:13:41;21.90;;;14.20;;
28862;SDS011;15994;51.796;13.006;2023-01-29T14:21:19;26.08;;;15.48;;
28862;SDS011;15994;51.796;13.006;2023-01-29T14:23:52;24.63;;;15.27;;
28862;SDS011;15994;51.796;13.006;2023-01-29T14:26:31;21.27;;;14.03;;
28862;SDS011;15994;51.796;13.006;2023-01-29T14:31:31;23.67;;;14.57;;
28862;SDS011;15994;51.796;13.006;2023-01-29T14:34:13;27.70;;;16.15;;
28862;SDS011;15994;51.796;13.006;2023-01-29T14:36:47;24.00;;;14.65;;
28862;SDS011;15994;51.796;13.006;2023-01-29T14:39:19;25.33;;;14.85;;
28862;SDS011;15994;51.796;13.006;2023-01-29T14:41:49;20.85;;;14.35;;
28862;SDS011;15994;51.796;13.006;2023-01-29T14:47:33;22.98;;;14.80;;
28862;SDS011;15994;51.796;13.006;2023-01-29T14:55:45;25.15;;;15.50;;
28862;SDS011;15994;51.796;13.006;2023-01-29T15:00:58;22.00;;;14.57;;
28862;SDS011;15994;51.796;13.006;2023-01-29T15:03:34;23.50;;;15.05;;
28862;SDS011;15994;51.796;13.006;2023-01-29T15:06:06;22.67;;;15.20;;
28862;SDS011;15994;51.796;13.006;2023-01-29T15:08:40;21.90;;;14.90;;
28862;SDS011;15994;51.796;13.006;2023-01-29T15:11:30;23.98;;;14.80;;
28862;SDS011;15994;51.796;13.006;2023-01-29T15:16:49;22.40;;;14.38;;
28862;SDS011;15994;51.796;13.006;2023-01-29T15:19:28;23.67;;;14.57;;
28862;SDS011;15994;51.796;13.006;2023-01-29T15:22:01;20.80;;;13.88;;
28862;SDS011;15994;51.796;13.006;2023-01-29T15:24:28;23.00;;;13.88;;
28862;SDS011;15994;51.796;13.006;2023-01-29T15:26:54;24.77;;;13.90;;
28862;SDS011;15994;51.796;13.006;2023-01-29T15:29:22;22.80;;;13.93;;
28862;SDS011;15994;51.796;13.006;2023-01-29T15:31:52;21.00;;;14.45;;
28862;SDS011;15994;51.796;13.006;2023-01-29T15:34:19;23.23;;;13.95;;
28862;SDS011;15994;51.796;13.006;2023-01-29T15:36:46;21.35;;;14.02;;
28862;SDS011;15994;51.796;13.006;2023-01-29T15:39:14;21.48;;;14.10;;
28862;SDS011;15994;51.796;13.006;2023-01-29T15:41:46;21.25;;;13.45;;
28862;SDS011;15994;51.796;13.006;2023-01-29T15:44:15;23.40;;;13.60;;
28862;SDS011;15994;51.796;13.006;2023-01-29T15:46:46;18.98;;;12.82;;
28862;SDS011;15994;51.796;13.006;2023-01-29T15:49:19;21.25;;;13.73;;
28862;SDS011;15994;51.796;13.006;2023-01-29T15:52:02;21.33;;;13.80;;
28862;SDS011;15994;51.796;13.006;2023-01-29T15:54:32;22.90;;;13.77;;
28862;SDS011;15994;51.796;13.006;2023-01-29T15:57:00;21.35;;;13.30;;
28862;SDS011;15994;51.796;13.006;2023-01-29T15:59:30;21.77;;;14.15;;
28862;SDS011;15994;51.796;13.006;2023-01-29T16:04:59;21.83;;;14.07;;
28862;SDS011;15994;51.796;13.006;2023-01-29T16:07:27;22.27;;;14.35;;
28862;SDS011;15994;51.796;13.006;2023-01-29T16:09:54;22.38;;;14.20;;
28862;SDS011;15994;51.796;13.006;2023-01-29T16:12:21;22.45;;;14.90;;
28862;SDS011;15994;51.796;13.006;2023-01-29T16:14:48;21.35;;;13.70;;
28862;SDS011;15994;51.796;13.006;2023-01-29T16:17:22;19.23;;;12.63;;
28862;SDS011;15994;51.796;13.006;2023-01-29T16:19:58;21.30;;;13.38;;
28862;SDS011;15994;51.796;13.006;2023-01-29T16:22:25;20.52;;;14.07;;
28862;SDS011;15994;51.796;13.006;2023-01-29T16:24:57;21.90;;;14.23;;
28862;SDS011;15994;51.796;13.006;2023-01-29T16:27:27;21.30;;;13.32;;
28862;SDS011;15994;51.796;13.006;2023-01-29T16:29:55;20.42;;;13.55;;
28862;SDS011;15994;51.796;13.006;2023-01-29T16:32:22;20.85;;;13.20;;